sensor_id;sensor_type;location;lat;lon;timestamp;pressure;altitude;pressure_sealevel;temperature;humidity
75497;BME280;64074;47.540;19.072;2023-10-09T00:01:28;101600.38;;;12.30;43.42
75497;BME280;64074;47.540;19.072;2023-10-09T00:04:45;101607.16;;;12.38;43.54
75497;BME280;64074;47.540;19.072;2023-10-09T00:08:31;101600.91;;;12.42;44.08
75497;BME280;64074;47.540;19.072;2023-10-09T00:11:56;101593.03;;;12.36;42.33
75497;BME280;64074;47.540;19.072;2023-10-09T00:15:47;101580.06;;;12.02;43.37
75497;BME280;64074;47.540;19.072;2023-10-09T00:19:15;101588.41;;;12.41;44.73
75497;BME280;64074;47.540;19.072;2023-10-09T00:22:54;101592.66;;;12.62;44.29
75497;BME280;64074;47.540;19.072;2023-10-09T00:26:05;101591.63;;;12.53;43.20
75497;BME280;64074;47.540;19.072;2023-10-09T00:29:23;101593.09;;;12.05;43.84
75497;BME280;64074;47.540;19.072;2023-10-09T00:32:45;101586.59;;;12.01;43.33
75497;BME280;64074;47.540;19.072;2023-10-09T00:36:28;101574.84;;;12.21;42.89
75497;BME280;64074;47.540;19.072;2023-10-09T00:39:34;101569.38;;;12.41;42.62
75497;BME280;64074;47.540;19.072;2023-10-09T00:42:38;101568.81;;;12.34;43.22
75497;BME280;64074;47.540;19.072;2023-10-09T00:45:54;101570.97;;;12.47;44.88
75497;BME280;64074;47.540;19.072;2023-10-09T00:49:23;101574.19;;;12.65;46.91
75497;BME280;64074;47.540;19.072;2023-10-09T00:52:45;101576.63;;;12.66;46.67
75497;BME280;64074;47.540;19.072;2023-10-09T00:56:04;101579.66;;;12.54;45.23
75497;BME280;64074;47.540;19.072;2023-10-09T00:59:52;101565.53;;;12.47;47.48
75497;BME280;64074;47.540;19.072;2023-10-09T01:03:23;101574.81;;;12.36;46.70
75497;BME280;64074;47.540;19.072;2023-10-09T01:06:48;101564.00;;;12.11;43.60
75497;BME280;64074;47.540;19.072;2023-10-09T01:10:46;101572.44;;;12.09;44.01
75497;BME280;64074;47.540;19.072;2023-10-09T01:14:12;101572.16;;;12.16;44.02
75497;BME280;64074;47.540;19.072;2023-10-09T01:17:26;101569.28;;;12.61;45.13
75497;BME280;64074;47.540;19.072;2023-10-09T01:20:46;101575.53;;;12.67;44.68
75497;BME280;64074;47.540;19.072;2023-10-09T01:24:03;101574.91;;;12.80;45.97
75497;BME280;64074;47.540;19.072;2023-10-09T01:27:20;101576.25;;;12.83;44.76
75497;BME280;64074;47.540;19.072;2023-10-09T01:30:38;101574.63;;;12.82;45.22
75497;BME280;64074;47.540;19.072;2023-10-09T01:34:05;101576.03;;;12.74;46.02
75497;BME280;64074;47.540;19.072;2023-10-09T01:37:21;101580.25;;;12.41;44.76
75497;BME280;64074;47.540;19.072;2023-10-09T01:40:42;101572.69;;;12.08;43.83
75497;BME280;64074;47.540;19.072;2023-10-09T01:43:48;101570.00;;;12.02;43.73
75497;BME280;64074;47.540;19.072;2023-10-09T01:47:03;101576.50;;;12.12;44.33
75497;BME280;64074;47.540;19.072;2023-10-09T01:50:22;101589.03;;;12.02;44.21
75497;BME280;64074;47.540;19.072;2023-10-09T01:53:39;101591.47;;;11.99;44.70
75497;BME280;64074;47.540;19.072;2023-10-09T01:56:52;101582.22;;;12.05;44.86
75497;BME280;64074;47.540;19.072;2023-10-09T02:00:25;101579.75;;;12.14;43.91
75497;BME280;64074;47.540;19.072;2023-10-09T02:03:42;101590.63;;;12.19;44.01
75497;BME280;64074;47.540;19.072;2023-10-09T02:07:00;101593.91;;;12.16;44.16
75497;BME280;64074;47.540;19.072;2023-10-09T02:10:24;101594.97;;;12.25;43.39
75497;BME280;64074;47.540;19.072;2023-10-09T02:13:41;101581.78;;;12.62;45.91
75497;BME280;64074;47.540;19.072;2023-10-09T02:17:09;101586.41;;;12.62;44.67
75497;BME280;64074;47.540;19.072;2023-10-09T02:20:24;101595.91;;;12.70;45.09
75497;BME280;64074;47.540;19.072;2023-10-09T02:23:38;101581.78;;;12.68;45.43
75497;BME280;64074;47.540;19.072;2023-10-09T02:27:19;101568.19;;;12.62;44.99
75497;BME280;64074;47.540;19.072;2023-10-09T02:30:47;101558.59;;;12.75;45.20
75497;BME280;64074;47.540;19.072;2023-10-09T02:33:51;101549.44;;;12.56;45.98
75497;BME280;64074;47.540;19.072;2023-10-09T02:37:07;101566.97;;;12.19;46.29
75497;BME280;64074;47.540;19.072;2023-10-09T02:40:34;101554.78;;;11.86;48.93
75497;BME280;64074;47.540;19.072;2023-10-09T02:44:09;101544.72;;;11.77;48.39
75497;BME280;64074;47.540;19.072;2023-10-09T02:47:26;101536.88;;;11.65;47.70
75497;BME280;64074;47.540;19.072;2023-10-09T02:50:48;101538.50;;;11.81;47.13
75497;BME280;64074;47.540;19.072;2023-10-09T02:54:05;101533.03;;;11.76;45.92
75497;BME280;64074;47.540;19.072;2023-10-09T02:57:27;101528.16;;;11.83;44.44
75497;BME280;64074;47.540;19.072;2023-10-09T03:00:45;101530.34;;;11.86;44.43
75497;BME280;64074;47.540;19.072;2023-10-09T03:04:04;101526.78;;;12.01;44.17
75497;BME280;64074;47.540;19.072;2023-10-09T03:07:21;101504.19;;;12.11;43.50
75497;BME280;64074;47.540;19.072;2023-10-09T03:10:38;101508.59;;;11.81;45.42
75497;BME280;64074;47.540;19.072;2023-10-09T03:14:08;101531.69;;;11.99;45.19
75497;BME280;64074;47.540;19.072;2023-10-09T03:17:20;101533.53;;;12.19;44.47
75497;BME280;64074;47.540;19.072;2023-10-09T03:20:25;101526.53;;;11.97;47.29
75497;BME280;64074;47.540;19.072;2023-10-09T03:23:29;101529.22;;;12.02;47.96
75497;BME280;64074;47.540;19.072;2023-10-09T03:26:34;101516.38;;;12.23;47.53
75497;BME280;64074;47.540;19.072;2023-10-09T03:29:38;101533.53;;;12.19;48.03
75497;BME280;64074;47.540;19.072;2023-10-09T03:32:50;101528.16;;;11.98;48.30
75497;BME280;64074;47.540;19.072;2023-10-09T03:36:04;101520.91;;;12.48;46.81
75497;BME280;64074;47.540;19.072;2023-10-09T03:39:21;101548.13;;;12.38;46.57
75497;BME280;64074;47.540;19.072;2023-10-09T03:42:59;101539.53;;;12.11;47.01
75497;BME280;64074;47.540;19.072;2023-10-09T03:46:20;101515.06;;;12.11;46.73
75497;BME280;64074;47.540;19.072;2023-10-09T03:49:50;101520.28;;;11.97;46.72
75497;BME280;64074;47.540;19.072;2023-10-09T03:53:03;101522.13;;;12.12;46.31
75497;BME280;64074;47.540;19.072;2023-10-09T03:56:11;101518.22;;;12.38;46.95
75497;BME280;64074;47.540;19.072;2023-10-09T03:59:23;101522.66;;;12.24;46.34
75497;BME280;64074;47.540;19.072;2023-10-09T04:02:59;101514.38;;;12.49;45.99
75497;BME280;64074;47.540;19.072;2023-10-09T04:06:13;101509.59;;;12.26;45.50
75497;BME280;64074;47.540;19.072;2023-10-09T04:09:24;101509.06;;;12.24;45.54
75497;BME280;64074;47.540;19.072;2023-10-09T04:12:32;101522.56;;;12.44;45.11
75497;BME280;64074;47.540;19.072;2023-10-09T04:15:43;101510.63;;;12.40;45.14
75497;BME280;64074;47.540;19.072;2023-10-09T04:19:07;101509.94;;;12.69;43.59
75497;BME280;64074;47.540;19.072;2023-10-09T04:22:22;101515.38;;;12.63;44.12
75497;BME280;64074;47.540;19.072;2023-10-09T04:25:42;101508.88;;;12.59;42.96
75497;BME280;64074;47.540;19.072;2023-10-09T04:28:46;101493.75;;;12.38;43.46
75497;BME280;64074;47.540;19.072;2023-10-09T04:32:00;101493.75;;;12.43;43.09
75497;BME280;64074;47.540;19.072;2023-10-09T04:35:14;101507.28;;;12.53;41.91
75497;BME280;64074;47.540;19.072;2023-10-09T04:38:28;101491.75;;;12.64;42.79
75497;BME280;64074;47.540;19.072;2023-10-09T04:41:45;101493.91;;;12.62;42.44
75497;BME280;64074;47.540;19.072;2023-10-09T04:58:14;101478.91;;;12.70;41.63
75497;BME280;64074;47.540;19.072;2023-10-09T05:01:35;101473.38;;;12.41;41.84
75497;BME280;64074;47.540;19.072;2023-10-09T05:04:48;101468.75;;;12.31;42.42
75497;BME280;64074;47.540;19.072;2023-10-09T05:08:16;101466.50;;;12.48;41.95
75497;BME280;64074;47.540;19.072;2023-10-09T05:11:31;101461.50;;;12.71;42.09
75497;BME280;64074;47.540;19.072;2023-10-09T05:15:19;101479.19;;;12.63;41.61
75497;BME280;64074;47.540;19.072;2023-10-09T05:18:42;101464.56;;;12.54;41.82
75497;BME280;64074;47.540;19.072;2023-10-09T05:21:52;101462.59;;;12.70;40.99
75497;BME280;64074;47.540;19.072;2023-10-09T05:24:59;101463.69;;;12.69;40.61
75497;BME280;64074;47.540;19.072;2023-10-09T05:28:12;101442.88;;;12.44;41.90
75497;BME280;64074;47.540;19.072;2023-10-09T05:31:42;101454.53;;;12.93;41.07
75497;BME280;64074;47.540;19.072;2023-10-09T05:35:02;101462.47;;;12.90;40.30
75497;BME280;64074;47.540;19.072;2023-10-09T05:38:11;101471.78;;;12.79;40.72
75497;BME280;64074;47.540;19.072;2023-10-09T05:41:28;101479.47;;;12.67;40.65
75497;BME280;64074;47.540;19.072;2023-10-09T05:44:56;101497.72;;;13.05;40.83
75497;BME280;64074;47.540;19.072;2023-10-09T05:48:30;101498.50;;;13.11;39.85
75497;BME280;64074;47.540;19.072;2023-10-09T05:51:55;101486.88;;;13.00;39.50
75497;BME280;64074;47.540;19.072;2023-10-09T05:55:32;101432.81;;;12.83;39.24
75497;BME280;64074;47.540;19.072;2023-10-09T05:59:33;101464.69;;;13.22;39.34
75497;BME280;64074;47.540;19.072;2023-10-09T06:03:10;101464.00;;;13.01;38.48
75497;BME280;64074;47.540;19.072;2023-10-09T06:07:16;101463.28;;;12.85;39.07
75497;BME280;64074;47.540;19.072;2023-10-09T06:11:12;101449.38;;;12.92;39.27
75497;BME280;64074;47.540;19.072;2023-10-09T06:15:03;101446.28;;;13.04;38.54
75497;BME280;64074;47.540;19.072;2023-10-09T06:18:24;101436.91;;;12.81;38.94
75497;BME280;64074;47.540;19.072;2023-10-09T06:21:43;101429.03;;;13.18;37.99
75497;BME280;64074;47.540;19.072;2023-10-09T06:25:07;101419.19;;;13.22;38.15
75497;BME280;64074;47.540;19.072;2023-10-09T06:28:26;101430.56;;;12.96;37.68
75497;BME280;64074;47.540;19.072;2023-10-09T06:31:44;101436.19;;;12.70;38.27
75497;BME280;64074;47.540;19.072;2023-10-09T06:35:46;101435.28;;;12.80;37.72
75497;BME280;64074;47.540;19.072;2023-10-09T06:39:07;101443.94;;;12.87;37.28
75497;BME280;64074;47.540;19.072;2023-10-09T06:42:54;101442.78;;;12.98;37.70
75497;BME280;64074;47.540;19.072;2023-10-09T06:46:14;101438.31;;;12.78;37.82
75497;BME280;64074;47.540;19.072;2023-10-09T06:49:49;101433.56;;;12.94;35.99
75497;BME280;64074;47.540;19.072;2023-10-09T06:53:39;101430.22;;;13.02;37.04
75497;BME280;64074;47.540;19.072;2023-10-09T06:57:02;101421.72;;;13.14;36.57
75497;BME280;64074;47.540;19.072;2023-10-09T07:33:15;101324.94;;;13.27;35.11
75497;BME280;64074;47.540;19.072;2023-10-09T07:37:09;101311.94;;;13.18;35.92
75497;BME280;64074;47.540;19.072;2023-10-09T07:40:32;101309.81;;;13.10;35.89
75497;BME280;64074;47.540;19.072;2023-10-09T07:44:14;101312.41;;;13.26;35.82
75497;BME280;64074;47.540;19.072;2023-10-09T07:47:54;101310.56;;;13.45;35.95
75497;BME280;64074;47.540;19.072;2023-10-09T07:51:32;101310.63;;;13.40;35.78
75497;BME280;64074;47.540;19.072;2023-10-09T07:54:59;101305.31;;;13.72;35.38
75497;BME280;64074;47.540;19.072;2023-10-09T07:58:53;101302.47;;;14.01;35.11
75497;BME280;64074;47.540;19.072;2023-10-09T08:02:38;101319.72;;;13.54;35.54
75497;BME280;64074;47.540;19.072;2023-10-09T08:06:06;101308.41;;;13.18;35.79
75497;BME280;64074;47.540;19.072;2023-10-09T08:09:41;101291.00;;;13.62;35.29
75497;BME280;64074;47.540;19.072;2023-10-09T08:13:28;101289.94;;;14.00;34.90
75497;BME280;64074;47.540;19.072;2023-10-09T08:17:06;101299.28;;;13.75;35.33
75497;BME280;64074;47.540;19.072;2023-10-09T08:20:36;101280.13;;;13.80;35.35
75497;BME280;64074;47.540;19.072;2023-10-09T08:24:34;101277.00;;;13.49;35.53
75497;BME280;64074;47.540;19.072;2023-10-09T08:28:02;101281.84;;;13.52;35.05
75497;BME280;64074;47.540;19.072;2023-10-09T08:31:31;101274.44;;;13.34;35.58
75497;BME280;64074;47.540;19.072;2023-10-09T08:35:08;101286.00;;;13.26;35.64
75497;BME280;64074;47.540;19.072;2023-10-09T08:38:45;101275.44;;;13.19;35.99
75497;BME280;64074;47.540;19.072;2023-10-09T08:42:24;101262.97;;;13.37;35.87
75497;BME280;64074;47.540;19.072;2023-10-09T08:45:41;101263.50;;;13.15;36.27
75497;BME280;64074;47.540;19.072;2023-10-09T08:48:56;101263.47;;;13.20;36.18
75497;BME280;64074;47.540;19.072;2023-10-09T08:52:07;101259.19;;;13.57;35.56
75497;BME280;64074;47.540;19.072;2023-10-09T08:55:21;101257.44;;;14.23;35.21
75497;BME280;64074;47.540;19.072;2023-10-09T08:58:39;101249.38;;;13.56;35.60
75497;BME280;64074;47.540;19.072;2023-10-09T09:02:03;101242.16;;;13.46;35.27
75497;BME280;64074;47.540;19.072;2023-10-09T09:05:17;101215.59;;;13.57;35.16
75497;BME280;64074;47.540;19.072;2023-10-09T09:08:25;101216.69;;;13.56;35.33
75497;BME280;64074;47.540;19.072;2023-10-09T09:11:41;101216.19;;;13.73;35.49
75497;BME280;64074;47.540;19.072;2023-10-09T09:14:59;101229.00;;;13.72;34.75
75497;BME280;64074;47.540;19.072;2023-10-09T09:18:32;101220.97;;;14.00;34.38
75497;BME280;64074;47.540;19.072;2023-10-09T09:21:57;101212.81;;;14.65;33.34
75497;BME280;64074;47.540;19.072;2023-10-09T09:25:45;101221.44;;;14.99;32.92
75497;BME280;64074;47.540;19.072;2023-10-09T09:29:21;101203.63;;;14.09;33.38
75497;BME280;64074;47.540;19.072;2023-10-09T09:33:39;101203.91;;;14.87;32.96
75497;BME280;64074;47.540;19.072;2023-10-09T10:29:29;101070.09;;;15.36;33.02
75497;BME280;64074;47.540;19.072;2023-10-09T10:33:10;101033.06;;;15.66;32.00
75497;BME280;64074;47.540;19.072;2023-10-09T10:36:28;101023.31;;;15.74;32.00
75497;BME280;64074;47.540;19.072;2023-10-09T10:39:53;101026.50;;;15.54;31.63
75497;BME280;64074;47.540;19.072;2023-10-09T10:43:26;101031.66;;;15.55;31.89
75497;BME280;64074;47.540;19.072;2023-10-09T10:46:44;101025.84;;;15.71;31.59
75497;BME280;64074;47.540;19.072;2023-10-09T10:50:04;100993.16;;;15.88;31.78
75497;BME280;64074;47.540;19.072;2023-10-09T10:53:37;100996.34;;;16.21;31.21
75497;BME280;64074;47.540;19.072;2023-10-09T10:57:03;101007.28;;;16.21;31.40
75497;BME280;64074;47.540;19.072;2023-10-09T11:00:56;101008.00;;;16.04;31.80
75497;BME280;64074;47.540;19.072;2023-10-09T11:04:37;100991.09;;;16.02;31.66
75497;BME280;64074;47.540;19.072;2023-10-09T11:08:12;101034.19;;;16.84;30.83
75497;BME280;64074;47.540;19.072;2023-10-09T11:12:05;101008.91;;;16.87;30.93
75497;BME280;64074;47.540;19.072;2023-10-09T11:16:28;100964.31;;;16.21;30.97
75497;BME280;64074;47.540;19.072;2023-10-09T11:19:56;101043.91;;;16.51;31.20
75497;BME280;64074;47.540;19.072;2023-10-09T11:23:34;101055.75;;;16.29;31.81
75497;BME280;64074;47.540;19.072;2023-10-09T11:26:47;101011.78;;;16.82;30.48
75497;BME280;64074;47.540;19.072;2023-10-09T11:30:07;100943.34;;;16.91;30.21
75497;BME280;64074;47.540;19.072;2023-10-09T11:33:44;100974.25;;;16.83;30.82
75497;BME280;64074;47.540;19.072;2023-10-09T11:37:17;101030.97;;;17.69;29.82
75497;BME280;64074;47.540;19.072;2023-10-09T11:40:47;101030.69;;;17.36;30.06
75497;BME280;64074;47.540;19.072;2023-10-09T11:44:11;101016.66;;;18.10;30.22
75497;BME280;64074;47.540;19.072;2023-10-09T11:47:35;101016.94;;;18.17;29.63
75497;BME280;64074;47.540;19.072;2023-10-09T11:51:11;100983.66;;;17.89;29.86
75497;BME280;64074;47.540;19.072;2023-10-09T11:54:34;100980.16;;;17.63;30.29
75497;BME280;64074;47.540;19.072;2023-10-09T11:57:48;100969.69;;;18.03;29.80
75497;BME280;64074;47.540;19.072;2023-10-09T12:01:25;100953.06;;;18.37;30.77
75497;BME280;64074;47.540;19.072;2023-10-09T12:04:55;100939.59;;;17.86;34.74
75497;BME280;64074;47.540;19.072;2023-10-09T12:08:24;100923.66;;;17.06;35.61
75497;BME280;64074;47.540;19.072;2023-10-09T12:11:56;100933.47;;;17.16;34.15
75497;BME280;64074;47.540;19.072;2023-10-09T12:15:18;100929.63;;;17.17;35.93
75497;BME280;64074;47.540;19.072;2023-10-09T12:18:31;100924.06;;;17.34;38.45
75497;BME280;64074;47.540;19.072;2023-10-09T12:22:25;100922.66;;;17.19;38.33
75497;BME280;64074;47.540;19.072;2023-10-09T12:25:51;100920.44;;;17.04;39.71
75497;BME280;64074;47.540;19.072;2023-10-09T12:29:29;100902.94;;;17.43;38.89
75497;BME280;64074;47.540;19.072;2023-10-09T12:32:40;100896.69;;;17.26;38.20
75497;BME280;64074;47.540;19.072;2023-10-09T12:35:58;100902.63;;;17.92;37.13
75497;BME280;64074;47.540;19.072;2023-10-09T12:39:16;100908.31;;;18.07;35.50
75497;BME280;64074;47.540;19.072;2023-10-09T12:42:25;100902.31;;;17.29;35.36
75497;BME280;64074;47.540;19.072;2023-10-09T12:45:38;100898.91;;;17.41;36.07
75497;BME280;64074;47.540;19.072;2023-10-09T12:48:54;100914.41;;;17.28;35.73
75497;BME280;64074;47.540;19.072;2023-10-09T12:52:43;100917.53;;;17.01;38.97
75497;BME280;64074;47.540;19.072;2023-10-09T12:56:29;100917.53;;;17.18;41.28
75497;BME280;64074;47.540;19.072;2023-10-09T12:59:58;100909.31;;;16.83;41.00
75497;BME280;64074;47.540;19.072;2023-10-09T13:03:29;100901.44;;;16.90;42.66
75497;BME280;64074;47.540;19.072;2023-10-09T13:07:01;100913.66;;;16.41;42.51
75497;BME280;64074;47.540;19.072;2023-10-09T13:10:16;100916.75;;;16.00;43.08
75497;BME280;64074;47.540;19.072;2023-10-09T13:13:29;100914.09;;;16.17;43.54
75497;BME280;64074;47.540;19.072;2023-10-09T13:16:51;100904.31;;;16.51;44.10
75497;BME280;64074;47.540;19.072;2023-10-09T13:20:04;100904.47;;;16.54;45.29
75497;BME280;64074;47.540;19.072;2023-10-09T13:23:23;100895.28;;;16.59;46.39
75497;BME280;64074;47.540;19.072;2023-10-09T13:26:56;100893.03;;;16.52;46.91
75497;BME280;64074;47.540;19.072;2023-10-09T13:30:14;100887.72;;;16.39;47.14
75497;BME280;64074;47.540;19.072;2023-10-09T13:33:45;100887.56;;;16.52;49.13
75497;BME280;64074;47.540;19.072;2023-10-09T13:37:03;100884.97;;;16.56;50.79
75497;BME280;64074;47.540;19.072;2023-10-09T13:40:27;100883.03;;;16.13;47.35
75497;BME280;64074;47.540;19.072;2023-10-09T13:43:32;100889.25;;;15.96;48.22
75497;BME280;64074;47.540;19.072;2023-10-09T13:46:38;100892.66;;;16.11;49.21
75497;BME280;64074;47.540;19.072;2023-10-09T13:49:51;100894.41;;;16.07;48.34
75497;BME280;64074;47.540;19.072;2023-10-09T13:53:00;100900.41;;;16.26;54.80
75497;BME280;64074;47.540;19.072;2023-10-09T13:56:13;100893.50;;;16.28;49.94
75497;BME280;64074;47.540;19.072;2023-10-09T13:59:46;100878.34;;;16.14;49.27
75497;BME280;64074;47.540;19.072;2023-10-09T14:03:20;100868.66;;;15.99;50.37
75497;BME280;64074;47.540;19.072;2023-10-09T14:06:38;100842.06;;;15.82;51.68
75497;BME280;64074;47.540;19.072;2023-10-09T14:09:55;100845.03;;;16.12;52.93
75497;BME280;64074;47.540;19.072;2023-10-09T14:13:12;100850.03;;;16.18;57.04
75497;BME280;64074;47.540;19.072;2023-10-09T14:16:22;100841.50;;;16.20;55.38
75497;BME280;64074;47.540;19.072;2023-10-09T14:19:48;100825.38;;;15.92;57.84
75497;BME280;64074;47.540;19.072;2023-10-09T14:23:19;100817.00;;;15.97;59.13
75497;BME280;64074;47.540;19.072;2023-10-09T14:26:45;100828.28;;;15.96;58.60
75497;BME280;64074;47.540;19.072;2023-10-09T14:29:59;100827.16;;;15.97;58.46
75497;BME280;64074;47.540;19.072;2023-10-09T14:33:04;100849.81;;;15.89;54.11
75497;BME280;64074;47.540;19.072;2023-10-09T14:36:11;100850.59;;;15.81;56.67
75497;BME280;64074;47.540;19.072;2023-10-09T14:39:28;100846.88;;;15.77;57.02
75497;BME280;64074;47.540;19.072;2023-10-09T14:42:42;100858.34;;;15.48;58.24
75497;BME280;64074;47.540;19.072;2023-10-09T14:45:55;100854.91;;;15.73;59.91
75497;BME280;64074;47.540;19.072;2023-10-09T14:49:25;100856.91;;;15.50;61.89
75497;BME280;64074;47.540;19.072;2023-10-09T14:52:40;100851.47;;;15.59;60.35
75497;BME280;64074;47.540;19.072;2023-10-09T14:55:56;100843.66;;;15.66;61.06
75497;BME280;64074;47.540;19.072;2023-10-09T14:59:33;100851.16;;;15.60;60.84
75497;BME280;64074;47.540;19.072;2023-10-09T15:02:54;100844.31;;;15.41;63.49
75497;BME280;64074;47.540;19.072;2023-10-09T15:06:00;100843.09;;;15.16;61.83
75497;BME280;64074;47.540;19.072;2023-10-09T15:09:11;100847.50;;;15.34;61.98
75497;BME280;64074;47.540;19.072;2023-10-09T15:12:42;100840.69;;;15.23;62.99
75497;BME280;64074;47.540;19.072;2023-10-09T15:15:47;100834.94;;;15.33;61.16
75497;BME280;64074;47.540;19.072;2023-10-09T15:19:01;100815.97;;;14.97;61.62
75497;BME280;64074;47.540;19.072;2023-10-09T15:22:36;100818.50;;;15.16;63.49
75497;BME280;64074;47.540;19.072;2023-10-09T15:26:10;100822.75;;;14.99;62.53
75497;BME280;64074;47.540;19.072;2023-10-09T15:29:17;100835.06;;;15.19;61.96
75497;BME280;64074;47.540;19.072;2023-10-09T15:32:25;100843.91;;;15.25;62.50
75497;BME280;64074;47.540;19.072;2023-10-09T15:35:33;100830.06;;;15.13;64.79
75497;BME280;64074;47.540;19.072;2023-10-09T15:38:41;100816.19;;;15.09;64.64
75497;BME280;64074;47.540;19.072;2023-10-09T15:41:49;100811.59;;;14.87;67.09
75497;BME280;64074;47.540;19.072;2023-10-09T15:45:00;100815.81;;;14.93;66.32
75497;BME280;64074;47.540;19.072;2023-10-09T15:48:26;100811.19;;;15.02;64.60
75497;BME280;64074;47.540;19.072;2023-10-09T15:51:37;100806.56;;;15.12;65.33
75497;BME280;64074;47.540;19.072;2023-10-09T15:54:53;100807.81;;;15.05;64.37
75497;BME280;64074;47.540;19.072;2023-10-09T15:58:05;100794.28;;;14.92;66.13
75497;BME280;64074;47.540;19.072;2023-10-09T16:01:21;100797.84;;;14.70;66.71
75497;BME280;64074;47.540;19.072;2023-10-09T16:04:35;100800.16;;;14.85;66.47
75497;BME280;64074;47.540;19.072;2023-10-09T16:07:47;100796.13;;;14.83;66.37
75497;BME280;64074;47.540;19.072;2023-10-09T16:10:54;100823.25;;;14.79;67.42
75497;BME280;64074;47.540;19.072;2023-10-09T16:14:02;100827.72;;;14.53;68.46
75497;BME280;64074;47.540;19.072;2023-10-09T16:17:13;100814.41;;;14.51;67.62
75497;BME280;64074;47.540;19.072;2023-10-09T16:20:22;100821.59;;;14.47;66.57
75497;BME280;64074;47.540;19.072;2023-10-09T16:23:36;100827.34;;;14.45;66.60
75497;BME280;64074;47.540;19.072;2023-10-09T16:27:00;100829.34;;;14.54;65.33
75497;BME280;64074;47.540;19.072;2023-10-09T16:30:20;100832.88;;;14.54;65.19
75497;BME280;64074;47.540;19.072;2023-10-09T16:33:40;100816.53;;;14.40;64.01
75497;BME280;64074;47.540;19.072;2023-10-09T16:37:09;100817.44;;;14.36;64.41
75497;BME280;64074;47.540;19.072;2023-10-09T16:40:24;100825.00;;;14.53;64.23
75497;BME280;64074;47.540;19.072;2023-10-09T16:43:38;100841.69;;;14.51;65.49
75497;BME280;64074;47.540;19.072;2023-10-09T16:47:05;100850.97;;;14.36;65.71
75497;BME280;64074;47.540;19.072;2023-10-09T16:50:20;100855.44;;;14.32;66.51
75497;BME280;64074;47.540;19.072;2023-10-09T16:53:50;100850.84;;;14.19;65.92
75497;BME280;64074;47.540;19.072;2023-10-09T16:57:05;100854.94;;;14.44;66.27
75497;BME280;64074;47.540;19.072;2023-10-09T17:00:26;100846.47;;;14.45;65.68
75497;BME280;64074;47.540;19.072;2023-10-09T17:03:48;100850.78;;;14.33;66.49
75497;BME280;64074;47.540;19.072;2023-10-09T17:07:05;100843.31;;;14.38;65.38
75497;BME280;64074;47.540;19.072;2023-10-09T17:10:18;100847.25;;;14.46;64.74
75497;BME280;64074;47.540;19.072;2023-10-09T17:13:29;100853.22;;;14.34;66.29
75497;BME280;64074;47.540;19.072;2023-10-09T17:16:43;100849.13;;;14.23;66.93
75497;BME280;64074;47.540;19.072;2023-10-09T17:20:05;100846.50;;;14.18;67.19
75497;BME280;64074;47.540;19.072;2023-10-09T17:23:25;100832.41;;;14.02;66.83
75497;BME280;64074;47.540;19.072;2023-10-09T17:26:47;100835.66;;;14.27;66.25
75497;BME280;64074;47.540;19.072;2023-10-09T17:30:12;100833.63;;;14.46;67.08
75497;BME280;64074;47.540;19.072;2023-10-09T17:33:30;100825.31;;;14.37;65.30
75497;BME280;64074;47.540;19.072;2023-10-09T17:36:47;100828.78;;;14.43;65.34
75497;BME280;64074;47.540;19.072;2023-10-09T17:40:13;100831.94;;;14.59;65.45
75497;BME280;64074;47.540;19.072;2023-10-09T17:43:43;100831.72;;;14.69;64.78
75497;BME280;64074;47.540;19.072;2023-10-09T17:46:55;100828.59;;;14.84;64.89
75497;BME280;64074;47.540;19.072;2023-10-09T17:50:04;100808.00;;;14.78;64.92
75497;BME280;64074;47.540;19.072;2023-10-09T17:53:15;100808.81;;;14.78;64.61
75497;BME280;64074;47.540;19.072;2023-10-09T17:56:27;100797.06;;;14.78;64.35
75497;BME280;64074;47.540;19.072;2023-10-09T17:59:54;100798.50;;;14.75;64.92
75497;BME280;64074;47.540;19.072;2023-10-09T18:03:08;100818.50;;;14.62;65.40
75497;BME280;64074;47.540;19.072;2023-10-09T18:06:26;100805.22;;;14.47;64.37
75497;BME280;64074;47.540;19.072;2023-10-09T18:09:49;100813.50;;;14.42;64.47
75497;BME280;64074;47.540;19.072;2023-10-09T18:13:10;100815.44;;;14.41;64.15
75497;BME280;64074;47.540;19.072;2023-10-09T18:16:27;100814.84;;;14.44;63.51
75497;BME280;64074;47.540;19.072;2023-10-09T18:19:47;100815.38;;;14.55;62.25
75497;BME280;64074;47.540;19.072;2023-10-09T18:22:55;100818.13;;;14.55;62.65
75497;BME280;64074;47.540;19.072;2023-10-09T18:25:59;100820.59;;;14.43;62.05
75497;BME280;64074;47.540;19.072;2023-10-09T18:29:11;100829.03;;;14.19;62.11
75497;BME280;64074;47.540;19.072;2023-10-09T18:32:33;100822.97;;;14.08;62.29
75497;BME280;64074;47.540;19.072;2023-10-09T18:35:45;100830.84;;;14.24;62.06
75497;BME280;64074;47.540;19.072;2023-10-09T18:38:55;100823.34;;;14.29;61.56
75497;BME280;64074;47.540;19.072;2023-10-09T18:42:01;100838.06;;;13.92;62.73
75497;BME280;64074;47.540;19.072;2023-10-09T18:45:11;100830.16;;;14.18;63.39
75497;BME280;64074;47.540;19.072;2023-10-09T18:48:27;100826.69;;;14.26;64.43
75497;BME280;64074;47.540;19.072;2023-10-09T18:51:55;100835.47;;;14.23;65.35
75497;BME280;64074;47.540;19.072;2023-10-09T18:55:17;100840.19;;;13.95;66.25
75497;BME280;64074;47.540;19.072;2023-10-09T18:58:35;100836.97;;;13.79;68.63
75497;BME280;64074;47.540;19.072;2023-10-09T19:01:45;100842.22;;;13.90;68.06
75497;BME280;64074;47.540;19.072;2023-10-09T19:05:18;100843.53;;;13.78;69.79